Time;durP1;ratioP1;P1;durP2;ratioP2;P2;SDS_P1;SDS_P2;PMS_P1;PMS_P2;Temp;Humidity;BMP_temperature;BMP_pressure;BME280_temperature;BME280_humidity;BME280_pressure;Samples;Min_cycle;Max_cycle;Signal;HPM_P1;HPM_P2
2022/10/20 00:01:13;;;;;;;18.23;14.93;;;;;;;13.95;92.43;96023.00;5107962;28;20199;-81
2022/10/20 00:03:40;;;;;;;16.92;14.93;;;;;;;13.99;92.54;96024.22;5093629;28;20200;-80
2022/10/20 00:06:10;;;;;;;21.88;16.27;;;;;;;14.04;92.91;96024.47;5094085;28;20238;-80
2022/10/20 00:08:37;;;;;;;19.27;16.15;;;;;;;14.01;93.97;96017.88;5093670;28;20214;-82
2022/10/20 00:11:03;;;;;;;19.42;16.75;;;;;;;14.11;93.57;96020.13;5090105;28;20192;-81
2022/10/20 00:13:31;;;;;;;19.83;16.95;;;;;;;14.00;95.90;96016.28;5090683;28;20215;-81
2022/10/20 00:15:59;;;;;;;22.85;17.95;;;;;;;13.99;97.10;96011.28;5090776;28;21765;-81
2022/10/20 00:18:26;;;;;;;21.23;18.40;;;;;;;13.92;98.75;96020.78;5092128;28;20200;-82
2022/10/20 00:20:54;;;;;;;22.77;17.80;;;;;;;13.85;100.00;96025.09;5089697;28;20679;-80
2022/10/20 00:23:21;;;;;;;23.23;18.73;;;;;;;13.90;100.00;96031.31;5090453;28;20192;-82
2022/10/20 00:25:47;;;;;;;23.50;18.83;;;;;;;13.88;100.00;96037.66;5090132;28;20220;-81
2022/10/20 00:28:14;;;;;;;24.00;19.25;;;;;;;14.04;98.75;96025.28;5090645;28;20567;-81
2022/10/20 00:30:42;;;;;;;23.10;19.35;;;;;;;14.05;99.43;96033.81;5088517;28;20189;-80
2022/10/20 00:33:11;;;;;;;24.92;19.73;;;;;;;14.00;100.00;96020.66;5090750;28;20768;-81
2022/10/20 00:35:38;;;;;;;26.00;19.85;;;;;;;13.97;100.00;96015.84;5097464;28;20580;-82
2022/10/20 00:38:05;;;;;;;23.30;19.52;;;;;;;13.96;100.00;96025.41;5102797;28;20187;-81
2022/10/20 00:40:31;;;;;;;26.83;19.58;;;;;;;14.03;100.00;96017.69;5098294;27;20211;-82
2022/10/20 00:42:58;;;;;;;30.63;20.45;;;;;;;13.94;100.00;96009.25;5111558;28;20726;-82
2022/10/20 00:45:25;;;;;;;24.17;19.52;;;;;;;14.05;100.00;96006.13;5113136;28;20231;-81
2022/10/20 00:47:56;;;;;;;27.10;20.00;;;;;;;14.04;100.00;95990.81;5110319;28;20191;-81
2022/10/20 00:50:27;;;;;;;25.95;20.45;;;;;;;13.98;100.00;95992.34;5094372;28;20203;-82
2022/10/20 00:52:55;;;;;;;27.48;20.80;;;;;;;13.96;100.00;95983.16;5100267;28;20259;-80
2022/10/20 00:55:24;;;;;;;25.48;20.25;;;;;;;14.01;100.00;95976.44;5109386;28;20224;-80
2022/10/20 00:57:53;;;;;;;28.23;21.27;;;;;;;13.95;100.00;95978.97;5097580;28;20196;-80
2022/10/20 01:00:20;;;;;;;28.02;21.48;;;;;;;13.93;100.00;95975.78;5101894;28;20199;-82
2022/10/20 01:02:47;;;;;;;28.50;21.27;;;;;;;13.89;100.00;95975.34;5110737;28;20195;-80
2022/10/20 01:05:15;;;;;;;26.23;20.58;;;;;;;13.82;100.00;95970.13;5111386;28;20219;-80
2022/10/20 01:07:42;;;;;;;25.70;20.73;;;;;;;13.74;100.00;95975.44;5111506;28;20195;-81
2022/10/20 01:10:09;;;;;;;25.33;20.67;;;;;;;13.74;100.00;95967.66;5110049;28;20203;-80
2022/10/20 01:12:46;;;;;;;23.60;20.00;;;;;;;13.71;100.00;95968.03;5111406;28;20200;-80
2022/10/20 01:15:21;;;;;;;26.43;20.27;;;;;;;13.77;100.00;95966.50;5111000;28;20219;-82
2022/10/20 01:17:59;;;;;;;25.88;19.75;;;;;;;13.80;100.00;95963.53;5110633;28;20592;-82
2022/10/20 01:20:50;;;;;;;23.00;19.10;;;;;;;13.82;100.00;95964.97;5096112;28;20196;-81
2022/10/20 01:23:53;;;;;;;25.45;19.73;;;;;;;13.74;100.00;95965.06;5110576;28;20192;-81
2022/10/20 01:26:43;;;;;;;25.05;19.95;;;;;;;13.76;100.00;95962.31;5093523;28;20295;-80
2022/10/20 01:29:18;;;;;;;24.77;19.67;;;;;;;13.78;100.00;95963.72;5093602;28;20188;-80
2022/10/20 01:31:52;;;;;;;24.42;19.42;;;;;;;13.71;100.00;95975.78;5092610;28;20191;-80
2022/10/20 01:34:27;;;;;;;25.25;19.42;;;;;;;13.75;100.00;95969.28;5108843;27;20200;-80
2022/10/20 01:36:58;;;;;;;23.33;18.98;;;;;;;13.76;100.00;95972.66;5099456;27;20226;-80
2022/10/20 01:39:31;;;;;;;25.13;19.83;;;;;;;13.62;100.00;95968.38;5110175;28;20195;-81
2022/10/20 01:42:02;;;;;;;22.80;18.38;;;;;;;13.72;100.00;95958.47;5109091;28;20538;-82
2022/10/20 01:44:33;;;;;;;24.30;18.95;;;;;;;13.78;100.00;95949.97;5111188;28;20192;-80
2022/10/20 01:47:01;;;;;;;23.35;18.25;;;;;;;13.71;100.00;95949.13;5108958;28;20195;-82
2022/10/20 01:49:27;;;;;;;22.08;18.17;;;;;;;13.59;100.00;95948.84;5110856;28;20233;-80
2022/10/20 01:51:56;;;;;;;24.43;19.50;;;;;;;13.59;100.00;95955.78;5109261;28;20203;-80
2022/10/20 01:54:24;;;;;;;22.80;18.33;;;;;;;13.60;100.00;95952.22;5096460;28;20196;-79
2022/10/20 01:57:05;;;;;;;23.13;18.07;;;;;;;13.65;100.00;95953.28;5099337;28;20231;-81
2022/10/20 01:59:42;;;;;;;23.35;18.13;;;;;;;13.72;100.00;95953.31;5098766;28;20188;-82
2022/10/20 02:02:23;;;;;;;26.23;19.23;;;;;;;13.79;100.00;95947.22;5110781;28;20196;-82
2022/10/20 02:05:07;;;;;;;22.80;17.63;;;;;;;13.87;100.00;95948.03;5110813;28;20589;-81
2022/10/20 02:07:34;;;;;;;24.40;17.02;;;;;;;13.76;100.00;95950.16;5095873;28;20199;-82
2022/10/20 02:10:11;;;;;;;22.45;17.48;;;;;;;13.69;100.00;95948.50;5097878;28;20200;-80
2022/10/20 02:12:42;;;;;;;24.13;17.83;;;;;;;13.66;100.00;95946.31;5095749;28;20200;-82
2022/10/20 02:15:15;;;;;;;20.95;17.55;;;;;;;13.68;100.00;95942.53;5109434;28;20219;-81
2022/10/20 02:17:45;;;;;;;21.13;17.08;;;;;;;13.58;100.00;95936.09;5111024;28;20196;-82
2022/10/20 02:20:12;;;;;;;22.00;18.20;;;;;;;13.59;100.00;95935.09;5110393;28;20215;-82
2022/10/20 02:22:39;;;;;;;20.85;17.70;;;;;;;13.69;100.00;95933.78;5110798;28;20194;-81
2022/10/20 02:25:10;;;;;;;23.92;18.55;;;;;;;13.65;100.00;95936.94;5108790;28;20227;-82
2022/10/20 02:27:39;;;;;;;25.00;18.63;;;;;;;13.65;100.00;95929.97;5110506;28;20187;-79
2022/10/20 02:30:08;;;;;;;26.75;19.38;;;;;;;13.62;100.00;95925.19;5106782;28;20393;-79
2022/10/20 02:32:39;;;;;;;25.50;19.17;;;;;;;13.61;100.00;95922.78;5104091;27;20195;-83
2022/10/20 02:35:09;;;;;;;24.05;19.85;;;;;;;13.61;100.00;95915.81;5105684;28;20235;-82
2022/10/20 02:37:35;;;;;;;24.13;18.55;;;;;;;13.62;100.00;95917.41;5105628;28;20207;-81
2022/10/20 02:40:02;;;;;;;24.63;18.92;;;;;;;13.58;100.00;95915.38;5096551;28;20206;-82
2022/10/20 02:42:29;;;;;;;24.50;19.60;;;;;;;13.64;100.00;95912.84;5096359;28;20200;-82
2022/10/20 02:44:55;;;;;;;26.33;19.80;;;;;;;13.61;100.00;95913.22;5096629;28;20216;-80
2022/10/20 02:47:22;;;;;;;25.50;20.10;;;;;;;13.52;100.00;95901.41;5109265;28;20199;-83
2022/10/20 02:49:49;;;;;;;26.48;19.75;;;;;;;13.52;100.00;95903.97;5104693;28;20659;-81
2022/10/20 02:52:16;;;;;;;24.80;20.03;;;;;;;13.48;100.00;95907.91;5109642;28;20196;-81
2022/10/20 02:54:42;;;;;;;26.48;19.70;;;;;;;13.47;100.00;95904.53;5109508;28;20220;-81
2022/10/20 02:57:09;;;;;;;21.63;18.20;;;;;;;13.51;100.00;95904.16;5093612;28;20212;-81
2022/10/20 02:59:35;;;;;;;24.57;18.80;;;;;;;13.61;100.00;95897.69;5095906;28;20489;-82
2022/10/20 03:02:02;;;;;;;24.27;18.48;;;;;;;13.47;100.00;95896.78;5095454;28;20584;-82
2022/10/20 03:04:28;;;;;;;27.38;20.42;;;;;;;13.45;100.00;95897.97;5095072;28;20192;-82
2022/10/20 03:06:56;;;;;;;22.67;19.60;;;;;;;13.50;100.00;95903.38;5095703;28;20682;-81
2022/10/20 03:09:22;;;;;;;24.67;17.92;;;;;;;13.56;100.00;95899.25;5095169;28;20223;-80
2022/10/20 03:11:49;;;;;;;27.17;18.48;;;;;;;13.53;100.00;95904.78;5124749;27;20710;-79
2022/10/20 03:14:15;;;;;;;24.50;19.40;;;;;;;13.47;100.00;95894.19;5096045;28;20188;-82
2022/10/20 03:16:42;;;;;;;25.25;19.00;;;;;;;13.46;100.00;95899.56;5095244;28;20218;-81
2022/10/20 03:19:08;;;;;;;23.70;19.90;;;;;;;13.52;100.00;95896.22;5095289;28;20999;-80
2022/10/20 03:21:35;;;;;;;22.10;17.80;;;;;;;13.52;100.00;95911.75;5093615;28;20700;-80
2022/10/20 03:24:03;;;;;;;23.97;18.60;;;;;;;13.53;100.00;95908.16;5095036;28;20196;-82
2022/10/20 03:26:29;;;;;;;26.42;19.38;;;;;;;13.53;100.00;95903.00;5093609;28;20212;-81
2022/10/20 03:28:56;;;;;;;24.67;18.83;;;;;;;13.51;100.00;95904.97;5102970;27;20200;-82
2022/10/20 03:31:22;;;;;;;29.13;18.73;;;;;;;13.58;100.00;95910.22;5093507;28;20206;-80
2022/10/20 03:33:49;;;;;;;21.33;17.58;;;;;;;13.65;100.00;95900.72;5126501;27;20712;-81
2022/10/20 03:36:15;;;;;;;21.90;18.30;;;;;;;13.69;100.00;95914.88;5131022;27;20211;-82
2022/10/20 03:38:42;;;;;;;24.23;18.30;;;;;;;13.68;100.00;95906.28;5098790;28;20204;-82
2022/10/20 03:41:10;;;;;;;24.03;18.37;;;;;;;13.57;100.00;95903.44;5094201;28;20200;-80
2022/10/20 03:43:38;;;;;;;28.67;18.87;;;;;;;13.45;100.00;95900.56;5112125;28;20203;-80
2022/10/20 03:46:06;;;;;;;23.80;18.00;;;;;;;13.36;100.00;95905.06;5112170;28;20218;-81
2022/10/20 03:48:37;;;;;;;23.03;18.33;;;;;;;13.41;100.00;95900.13;5112105;28;20191;-80
2022/10/20 03:51:04;;;;;;;20.73;16.87;;;;;;;13.55;100.00;95900.22;5096284;28;20617;-82
2022/10/20 03:53:30;;;;;;;22.57;18.80;;;;;;;13.55;100.00;95901.03;5094039;28;20573;-79
2022/10/20 03:55:57;;;;;;;22.27;18.48;;;;;;;13.64;100.00;95897.34;5100522;28;20231;-81
2022/10/20 03:58:25;;;;;;;22.48;18.25;;;;;;;13.69;100.00;95900.13;5095515;28;20203;-83
2022/10/20 04:00:52;;;;;;;21.42;17.27;;;;;;;13.68;100.00;95895.94;5093179;28;20554;-82
2022/10/20 04:03:18;;;;;;;19.90;17.02;;;;;;;13.64;100.00;95893.94;5094124;28;20658;-81
2022/10/20 04:05:45;;;;;;;21.17;17.45;;;;;;;13.69;100.00;95894.16;5094023;28;20212;-80
2022/10/20 04:08:11;;;;;;;22.33;18.42;;;;;;;13.61;100.00;95896.91;5095184;28;20285;-82
2022/10/20 04:10:38;;;;;;;21.42;17.75;;;;;;;13.67;100.00;95893.53;5093520;28;20202;-82
2022/10/20 04:13:04;;;;;;;21.58;16.85;;;;;;;13.71;100.00;95885.22;5093684;28;20206;-81
2022/10/20 04:15:32;;;;;;;23.17;17.10;;;;;;;13.65;100.00;95890.38;5093738;28;20220;-80
2022/10/20 04:17:58;;;;;;;20.67;17.23;;;;;;;13.59;100.00;95896.28;5094083;28;20192;-80
2022/10/20 04:20:25;;;;;;;21.60;17.40;;;;;;;13.55;100.00;95900.22;5094023;28;20192;-82
2022/10/20 04:22:52;;;;;;;22.45;17.45;;;;;;;13.49;100.00;95897.41;5101226;28;20230;-80
2022/10/20 04:25:18;;;;;;;21.73;17.83;;;;;;;13.50;100.00;95893.03;5103473;28;20215;-80
2022/10/20 04:27:45;;;;;;;20.17;17.25;;;;;;;13.55;100.00;95902.81;5104087;28;20195;-81
2022/10/20 04:30:11;;;;;;;23.27;17.47;;;;;;;13.51;100.00;95897.22;5108325;28;20578;-81
2022/10/20 04:32:41;;;;;;;25.03;16.90;;;;;;;13.54;100.00;95898.63;5111085;28;20199;-82
2022/10/20 04:35:08;;;;;;;26.00;17.63;;;;;;;13.59;100.00;95886.75;5111630;28;20219;-82
2022/10/20 04:37:35;;;;;;;26.38;18.73;;;;;;;13.61;99.17;95878.78;5110769;28;20215;-81
2022/10/20 04:40:01;;;;;;;23.27;17.50;;;;;;;13.51;99.21;95883.47;5109063;28;20203;-80
2022/10/20 04:42:28;;;;;;;21.20;18.17;;;;;;;13.49;99.70;95871.53;5110220;28;20203;-81
2022/10/20 04:44:54;;;;;;;21.00;18.08;;;;;;;13.44;99.59;95875.69;5112780;28;20219;-81
2022/10/20 04:47:21;;;;;;;21.55;18.25;;;;;;;13.36;100.00;95870.63;5111937;28;20206;-82
2022/10/20 04:49:49;;;;;;;22.90;18.58;;;;;;;13.39;100.00;95867.66;5110675;28;20195;-80
2022/10/20 04:52:16;;;;;;;22.97;17.93;;;;;;;13.41;99.61;95869.09;5111941;28;20195;-79
2022/10/20 04:54:42;;;;;;;23.13;18.30;;;;;;;13.48;98.85;95869.13;5111327;28;20246;-81
2022/10/20 04:57:09;;;;;;;27.23;19.27;;;;;;;13.46;97.68;95871.91;5111674;28;20579;-82
2022/10/20 04:59:36;;;;;;;23.52;17.70;;;;;;;13.38;98.30;95866.06;5110910;28;20282;-80
2022/10/20 05:02:02;;;;;;;24.88;17.27;;;;;;;13.18;98.37;95876.25;5110715;28;20238;-81
2022/10/20 05:04:29;;;;;;;21.43;17.97;;;;;;;13.30;98.21;95879.91;5110771;28;20211;-81
2022/10/20 05:06:59;;;;;;;22.73;19.10;;;;;;;13.30;97.22;95871.34;5110058;28;20195;-80
2022/10/20 05:09:26;;;;;;;24.40;17.43;;;;;;;13.27;97.29;95866.59;5110738;28;20631;-81
2022/10/20 05:11:53;;;;;;;24.57;18.23;;;;;;;13.16;97.08;95859.31;5109927;28;20579;-79
2022/10/20 05:14:20;;;;;;;25.23;18.83;;;;;;;13.18;97.89;95857.34;5110338;28;20203;-83
2022/10/20 05:16:46;;;;;;;31.20;19.33;;;;;;;13.08;98.13;95852.47;5109040;28;20223;-80
2022/10/20 05:19:13;;;;;;;28.33;18.63;;;;;;;13.04;98.26;95862.38;5114939;27;20199;-81
2022/10/20 05:21:40;;;;;;;25.97;19.53;;;;;;;13.01;98.15;95854.19;5126213;27;20195;-80
2022/10/20 05:24:10;;;;;;;24.40;18.37;;;;;;;13.04;98.89;95859.78;5105431;27;21083;-81
2022/10/20 05:26:37;;;;;;;22.67;18.37;;;;;;;13.12;97.89;95857.06;5116310;27;20215;-80
2022/10/20 05:29:08;;;;;;;23.90;17.57;;;;;;;13.24;97.01;95857.41;5113652;28;20725;-80
2022/10/20 05:31:37;;;;;;;23.00;17.73;;;;;;;13.37;96.40;95854.13;5113298;28;20199;-82
2022/10/20 05:34:04;;;;;;;21.90;17.60;;;;;;;13.33;95.55;95851.09;5114078;28;20812;-81
2022/10/20 05:36:30;;;;;;;25.33;18.53;;;;;;;13.27;96.28;95858.81;5113881;28;20228;-80
2022/10/20 05:38:57;;;;;;;25.23;18.23;;;;;;;13.24;96.28;95862.59;5097536;28;20207;-80
2022/10/20 05:41:27;;;;;;;24.42;17.95;;;;;;;13.19;96.65;95859.75;5110050;28;20202;-82
2022/10/20 05:43:57;;;;;;;25.90;18.53;;;;;;;13.21;97.18;95857.78;5114125;28;20286;-81
2022/10/20 05:46:24;;;;;;;24.47;19.00;;;;;;;13.14;97.58;95849.91;5114272;28;20249;-81
2022/10/20 05:48:53;;;;;;;29.20;18.27;;;;;;;13.11;98.15;95857.25;5115836;28;20195;-82
2022/10/20 05:51:21;;;;;;;28.13;19.50;;;;;;;13.06;100.00;95857.81;5114994;28;20195;-80
2022/10/20 05:53:48;;;;;;;39.67;20.70;;;;;;;13.05;100.00;95856.22;5115990;28;20199;-82
2022/10/20 05:56:17;;;;;;;27.03;18.63;;;;;;;13.13;100.00;95850.09;5113681;28;20231;-82
2022/10/20 05:58:46;;;;;;;27.80;19.13;;;;;;;13.17;100.00;95851.38;5113782;28;20199;-81
2022/10/20 06:01:16;;;;;;;22.57;16.77;;;;;;;13.13;99.62;95848.31;5114595;28;20256;-82
2022/10/20 06:03:46;;;;;;;25.43;18.83;;;;;;;13.09;100.00;95848.88;5115955;28;20206;-82
2022/10/20 06:06:12;;;;;;;26.07;17.43;;;;;;;13.12;100.00;95849.31;5116856;28;20219;-82
2022/10/20 06:08:39;;;;;;;23.70;17.90;;;;;;;13.26;99.43;95863.19;5118309;28;20202;-82
2022/10/20 06:11:09;;;;;;;28.67;23.37;;;;;;;13.28;96.99;95861.19;5115488;28;20203;-82
2022/10/20 06:13:36;;;;;;;30.27;19.60;;;;;;;13.26;96.76;95860.63;5118556;27;20215;-81
2022/10/20 06:16:07;;;;;;;28.70;17.73;;;;;;;13.11;98.09;95862.41;5124782;27;20217;-82
2022/10/20 06:18:34;;;;;;;30.10;18.50;;;;;;;13.00;99.48;95850.78;5123033;27;20202;-82
2022/10/20 06:21:02;;;;;;;22.50;16.63;;;;;;;13.08;99.20;95849.88;5113225;28;20203;-81
2022/10/20 06:23:28;;;;;;;27.17;18.13;;;;;;;13.03;99.42;95850.44;5114185;28;20576;-80
2022/10/20 06:25:55;;;;;;;24.40;16.70;;;;;;;13.09;99.09;95854.84;5113111;28;20234;-79
2022/10/20 06:28:21;;;;;;;26.37;17.10;;;;;;;13.16;98.78;95867.88;5114868;28;20203;-80
2022/10/20 06:30:48;;;;;;;22.63;17.02;;;;;;;13.26;98.29;95870.97;5113476;28;20211;-80
2022/10/20 06:33:16;;;;;;;24.87;17.20;;;;;;;13.25;97.80;95866.78;5115384;28;20575;-80
2022/10/20 06:35:42;;;;;;;24.73;17.20;;;;;;;13.16;98.56;95867.88;5115720;28;20226;-80
2022/10/20 06:38:09;;;;;;;21.85;16.48;;;;;;;13.27;97.81;95866.59;5105120;28;20227;-80
2022/10/20 06:40:35;;;;;;;23.77;17.10;;;;;;;13.26;97.36;95860.63;5092935;28;20208;-80
2022/10/20 06:43:01;;;;;;;20.43;16.60;;;;;;;13.21;97.45;95867.31;5098045;28;20207;-80
2022/10/20 06:45:28;;;;;;;22.83;16.53;;;;;;;13.16;98.13;95861.91;5095496;28;20220;-80
2022/10/20 06:47:54;;;;;;;26.80;18.07;;;;;;;13.11;97.39;95859.81;5094247;28;20207;-80
2022/10/20 06:50:22;;;;;;;22.27;16.80;;;;;;;13.07;97.97;95859.41;5094046;28;20204;-81
2022/10/20 06:52:49;;;;;;;24.27;17.20;;;;;;;13.00;98.05;95858.53;5108828;28;20196;-81
2022/10/20 06:55:15;;;;;;;29.25;17.45;;;;;;;13.00;98.43;95858.53;5113427;28;20216;-82
2022/10/20 06:57:42;;;;;;;28.67;17.33;;;;;;;12.98;98.44;95857.13;5113232;28;20314;-81
2022/10/20 07:00:10;;;;;;;28.10;18.07;;;;;;;12.96;99.05;95859.09;5112700;28;20203;-80
2022/10/20 07:02:38;;;;;;;23.67;16.83;;;;;;;12.92;99.33;95850.09;5113337;28;20210;-80
2022/10/20 07:05:05;;;;;;;22.80;17.50;;;;;;;12.85;99.74;95849.25;5112474;28;20215;-80
2022/10/20 07:07:33;;;;;;;24.15;17.63;;;;;;;12.90;100.00;95841.72;5114533;28;20206;-80
2022/10/20 07:10:00;;;;;;;25.63;16.37;;;;;;;12.92;99.57;95848.31;5114849;28;20233;-80
2022/10/20 07:12:26;;;;;;;21.93;16.73;;;;;;;13.01;98.34;95849.81;5122266;27;20210;-80
2022/10/20 07:14:53;;;;;;;20.73;16.70;;;;;;;12.91;99.02;95851.09;5125770;27;20219;-81
2022/10/20 07:17:19;;;;;;;20.70;14.87;;;;;;;12.90;98.40;95846.91;5114898;28;20310;-78
2022/10/20 07:19:46;;;;;;;21.77;16.37;;;;;;;12.92;98.03;95855.28;5116139;28;20215;-81
2022/10/20 07:22:12;;;;;;;24.43;15.93;;;;;;;13.00;97.87;95850.78;5115408;28;20211;-81
2022/10/20 07:24:40;;;;;;;21.30;16.33;;;;;;;13.01;97.51;95856.75;5115430;28;20210;-81
2022/10/20 07:27:06;;;;;;;17.50;15.60;;;;;;;13.02;98.38;95850.59;5113272;28;20203;-81
2022/10/20 07:29:33;;;;;;;19.03;14.73;;;;;;;13.02;97.22;95848.81;5114058;28;20195;-79
2022/10/20 07:32:00;;;;;;;21.10;14.60;;;;;;;12.97;97.69;95850.34;5114374;28;20199;-80
2022/10/20 07:34:26;;;;;;;22.80;16.50;;;;;;;12.83;97.65;95846.06;5118282;28;20199;-79
2022/10/20 07:36:53;;;;;;;18.97;15.07;;;;;;;12.83;98.91;95844.28;5118574;28;20227;-79
2022/10/20 07:39:20;;;;;;;19.67;14.83;;;;;;;12.78;98.55;95851.75;5118064;28;20191;-80
2022/10/20 07:41:48;;;;;;;20.20;14.83;;;;;;;12.73;99.02;95851.50;5117586;28;20214;-80
2022/10/20 07:44:15;;;;;;;18.00;14.60;;;;;;;12.76;99.75;95854.53;5116031;28;20925;-78
2022/10/20 07:46:41;;;;;;;18.10;13.83;;;;;;;13.01;98.39;95851.59;5114259;28;20227;-80
2022/10/20 07:49:08;;;;;;;16.20;13.50;;;;;;;13.02;96.48;95846.25;5113213;28;20195;-80
2022/10/20 07:51:35;;;;;;;17.57;13.97;;;;;;;13.04;96.55;95848.66;5114837;28;20206;-82
2022/10/20 07:54:05;;;;;;;17.70;13.53;;;;;;;13.13;95.99;95843.16;5115493;28;20282;-81
2022/10/20 07:56:33;;;;;;;20.27;14.90;;;;;;;13.10;95.53;95840.94;5112891;28;20598;-81
2022/10/20 07:59:02;;;;;;;18.23;14.77;;;;;;;13.17;95.59;95827.31;5111657;28;20199;-81
2022/10/20 08:01:28;;;;;;;20.53;13.70;;;;;;;13.18;94.85;95821.16;5112613;28;20207;-82
2022/10/20 08:03:54;;;;;;;17.33;14.33;;;;;;;13.23;94.05;95824.78;5114134;28;20199;-81
2022/10/20 08:06:21;;;;;;;15.67;13.07;;;;;;;13.29;94.37;95825.78;5113815;28;20239;-81
2022/10/20 08:08:48;;;;;;;20.37;15.73;;;;;;;13.29;93.01;95830.97;5121931;28;20202;-81
2022/10/20 08:11:14;;;;;;;17.57;14.73;;;;;;;13.27;93.68;95828.59;5124172;27;20775;-82
2022/10/20 08:13:41;;;;;;;14.53;12.97;;;;;;;13.20;93.92;95830.31;5113735;28;20218;-81
2022/10/20 08:16:11;;;;;;;17.10;13.63;;;;;;;13.24;93.79;95828.97;5114205;28;20219;-79
2022/10/20 08:18:37;;;;;;;14.80;13.17;;;;;;;13.18;93.59;95834.06;5114532;28;20227;-81
2022/10/20 08:21:09;;;;;;;15.87;13.13;;;;;;;13.26;93.22;95829.59;5114035;28;20199;-79
2022/10/20 08:23:38;;;;;;;15.20;13.13;;;;;;;13.30;92.57;95827.41;5113690;28;20204;-79
2022/10/20 08:26:05;;;;;;;17.23;13.33;;;;;;;13.35;91.94;95825.84;5114843;28;20226;-81
2022/10/20 08:28:31;;;;;;;14.07;12.57;;;;;;;13.40;91.83;95820.94;5114743;28;20659;-81
2022/10/20 08:30:58;;;;;;;18.03;13.73;;;;;;;13.34;91.43;95819.09;5112928;28;20195;-81
2022/10/20 08:33:26;;;;;;;19.77;14.13;;;;;;;13.39;91.91;95823.69;5114594;28;20210;-81
2022/10/20 08:35:52;;;;;;;17.85;14.10;;;;;;;13.46;91.69;95820.19;5113808;28;20223;-81
2022/10/20 08:38:18;;;;;;;15.30;13.70;;;;;;;13.58;91.51;95820.47;5113957;28;20240;-80
2022/10/20 08:40:45;;;;;;;18.30;14.00;;;;;;;13.60;90.18;95818.47;5113672;28;20199;-80
2022/10/20 08:43:17;;;;;;;17.43;13.80;;;;;;;13.63;89.50;95812.13;5114702;28;20593;-80
2022/10/20 08:45:43;;;;;;;19.48;13.52;;;;;;;13.61;89.65;95811.53;5113712;28;20219;-80
2022/10/20 08:48:16;;;;;;;18.00;13.77;;;;;;;13.62;89.37;95813.91;5114557;28;20199;-80
2022/10/20 08:50:47;;;;;;;15.63;13.05;;;;;;;13.52;89.29;95799.72;5114207;28;20576;-79
2022/10/20 08:53:13;;;;;;;35.30;28.30;;;;;;;13.48;89.86;95814.78;5114336;28;20290;-80
2022/10/20 08:55:43;;;;;;;26.35;22.05;;;;;;;13.60;89.15;95812.50;5114861;28;20324;-79
2022/10/20 08:58:14;;;;;;;18.27;13.50;;;;;;;13.46;90.22;95804.66;5116941;28;20219;-81
2022/10/20 09:00:41;;;;;;;18.00;13.47;;;;;;;13.40;89.86;95812.38;5116663;28;20203;-82
2022/10/20 09:03:16;;;;;;;16.87;13.60;;;;;;;13.51;89.80;95823.97;5116574;28;20202;-80
2022/10/20 09:05:47;;;;;;;16.93;13.27;;;;;;;13.39;89.49;95815.94;5125921;27;20843;-81
2022/10/20 09:08:14;;;;;;;17.13;12.97;;;;;;;13.40;89.78;95805.41;5128476;27;20249;-81
2022/10/20 09:10:44;;;;;;;14.77;12.13;;;;;;;13.47;88.61;95806.25;5116697;28;20207;-79
2022/10/20 09:13:19;;;;;;;15.73;12.67;;;;;;;13.60;88.02;95805.53;5117247;28;20215;-79
2022/10/20 09:15:47;;;;;;;13.17;11.77;;;;;;;13.68;87.38;95804.59;5116500;28;20223;-80
2022/10/20 09:18:15;;;;;;;14.80;12.37;;;;;;;13.76;87.15;95804.44;5116594;28;20215;-79
2022/10/20 09:20:47;;;;;;;13.17;10.63;;;;;;;13.72;87.00;95808.38;5116285;28;20208;-80
2022/10/20 09:23:17;;;;;;;13.80;11.40;;;;;;;13.69;85.67;95796.63;5116895;28;20208;-81
2022/10/20 09:25:45;;;;;;;12.90;11.13;;;;;;;13.76;84.99;95801.84;5116646;28;20219;-80
2022/10/20 09:28:22;;;;;;;14.07;11.57;;;;;;;13.79;84.76;95797.09;5116816;28;20196;-79
2022/10/20 09:30:48;;;;;;;17.00;11.37;;;;;;;13.88;84.80;95807.28;5114841;28;20199;-80
2022/10/20 09:33:22;;;;;;;16.38;12.63;;;;;;;14.09;83.94;95800.22;5116554;28;20663;-79
2022/10/20 09:35:50;;;;;;;13.93;11.70;;;;;;;14.18;82.34;95806.06;5116732;28;20223;-79
2022/10/20 09:38:22;;;;;;;15.97;12.00;;;;;;;14.21;82.85;95803.06;5115554;28;20219;-79
2022/10/20 09:40:58;;;;;;;12.95;10.77;;;;;;;14.41;81.64;95808.34;5117701;28;20567;-81
2022/10/20 09:43:27;;;;;;;12.03;10.80;;;;;;;14.55;80.23;95811.78;5117377;28;20217;-81
2022/10/20 09:45:56;;;;;;;12.67;10.40;;;;;;;14.63;80.16;95803.81;5116255;28;20223;-80
2022/10/20 09:48:26;;;;;;;11.82;10.57;;;;;;;14.75;78.76;95797.06;5115792;28;20199;-79
2022/10/20 09:50:55;;;;;;;11.70;10.50;;;;;;;14.72;78.37;95807.84;5115514;28;20210;-81
2022/10/20 09:53:27;;;;;;;11.70;9.75;;;;;;;14.90;77.66;95807.25;5113949;28;20290;-79
2022/10/20 09:55:56;;;;;;;11.90;10.23;;;;;;;15.02;77.17;95801.28;5114648;28;20714;-81
2022/10/20 09:58:28;;;;;;;11.05;8.73;;;;;;;15.28;76.50;95784.94;5114973;28;20250;-80
2022/10/20 10:00:58;;;;;;;15.05;9.93;;;;;;;15.49;76.42;95787.31;5117666;27;20819;-80
2022/10/20 10:03:26;;;;;;;11.10;9.65;;;;;;;15.62;74.31;95801.28;5126530;27;20191;-79
2022/10/20 10:05:53;;;;;;;11.27;9.40;;;;;;;15.60;74.51;95788.50;5114102;28;20231;-79
2022/10/20 10:08:21;;;;;;;22.88;19.65;;;;;;;15.76;74.19;95788.09;5114487;27;20762;-80
2022/10/20 10:11:00;;;;;;;12.65;11.43;;;;;;;15.75;73.38;95778.72;5113680;28;20203;-81
2022/10/20 10:13:30;;;;;;;11.15;10.02;;;;;;;15.76;73.64;95787.31;5114327;28;20234;-81
2022/10/20 10:16:03;;;;;;;14.48;11.57;;;;;;;15.68;76.02;95779.72;5114215;28;20223;-79
2022/10/20 10:18:30;;;;;;;12.10;9.43;;;;;;;15.54;74.38;95786.72;5114820;28;20227;-79
2022/10/20 10:20:59;;;;;;;13.32;10.07;;;;;;;15.66;76.24;95784.31;5114547;28;20237;-79
2022/10/20 10:23:28;;;;;;;11.30;10.13;;;;;;;15.59;74.54;95786.16;5114224;28;20202;-81
2022/10/20 10:25:55;;;;;;;16.05;10.10;;;;;;;15.72;74.83;95792.09;5114566;28;20577;-82
2022/10/20 10:28:36;;;;;;;10.40;9.30;;;;;;;15.83;74.23;95793.25;5114766;28;20206;-81
2022/10/20 10:31:24;;;;;;;12.82;9.98;;;;;;;16.04;73.10;95789.59;5114034;28;20200;-82
2022/10/20 10:33:55;;;;;;;20.60;18.38;;;;;;;15.93;71.70;95788.47;5108754;28;20195;-82
2022/10/20 10:36:30;;;;;;;12.88;10.02;;;;;;;15.90;73.14;95778.47;5114501;28;20484;-81
2022/10/20 10:38:58;;;;;;;10.18;9.18;;;;;;;16.23;72.98;95783.53;5113895;28;20587;-80
2022/10/20 10:41:35;;;;;;;13.43;9.13;;;;;;;16.54;71.21;95770.59;5114166;28;20272;-79
2022/10/20 10:44:10;;;;;;;9.80;8.82;;;;;;;16.66;69.38;95770.75;5114077;28;20207;-79
2022/10/20 10:46:42;;;;;;;12.02;8.60;;;;;;;16.62;70.35;95764.34;5114501;28;20219;-81
2022/10/20 10:49:28;;;;;;;11.43;9.23;;;;;;;16.36;69.67;95756.69;5114724;28;20211;-81
2022/10/20 10:52:03;;;;;;;9.38;8.43;;;;;;;16.49;69.69;95757.44;5114057;28;20203;-81
2022/10/20 10:54:53;;;;;;;9.13;8.27;;;;;;;16.50;69.17;95756.44;5113104;28;20203;-80
2022/10/20 10:57:28;;;;;;;10.27;9.27;;;;;;;16.44;69.08;95751.25;5113709;27;20295;-79
2022/10/20 10:59:59;;;;;;;11.27;9.07;;;;;;;16.44;69.10;95754.66;5118625;27;20195;-81
2022/10/20 11:02:58;;;;;;;9.55;8.45;;;;;;;16.52;68.99;95746.63;5092738;28;20223;-79
2022/10/20 11:05:51;;;;;;;9.60;8.60;;;;;;;16.50;69.16;95738.22;5110360;28;20226;-79
2022/10/20 11:08:27;;;;;;;8.93;8.02;;;;;;;16.52;69.52;95736.22;5114193;28;20210;-80
2022/10/20 11:11:03;;;;;;;9.07;8.05;;;;;;;16.57;69.54;95728.56;5112256;28;20203;-80
2022/10/20 11:13:36;;;;;;;9.95;7.75;;;;;;;16.62;68.93;95725.34;5112553;28;20229;-79
2022/10/20 11:16:21;;;;;;;8.80;7.90;;;;;;;16.69;68.57;95720.16;5112298;28;20223;-80
2022/10/20 11:19:10;;;;;;;9.80;7.53;;;;;;;16.84;69.15;95715.41;5111359;28;20234;-80
2022/10/20 11:21:50;;;;;;;9.18;7.20;;;;;;;16.92;67.72;95725.56;5068003;28;20195;-80
2022/10/20 11:24:45;;;;;;;9.02;7.13;;;;;;;16.96;67.90;95726.72;5112304;28;20207;-79